Time;durP1;ratioP1;P1;durP2;ratioP2;P2;SDS_P1;SDS_P2;PMS_P1;PMS_P2;Temp;Humidity;BMP_temperature;BMP_pressure;BME280_temperature;BME280_humidity;BME280_pressure;Samples;Min_cycle;Max_cycle;Signal;HPM_P1;HPM_P2
2022/07/30 00:01:09;;;;;;;;;;;13.90;99.90;;;;;;4961654;28;20022;-74
2022/07/30 00:03:35;;;;;;;;;;;13.90;99.90;;;;;;4961865;28;19997;-74
2022/07/30 00:06:00;;;;;;;;;;;13.90;99.90;;;;;;4962024;28;19942;-74
2022/07/30 00:08:26;;;;;;;;;;;13.80;99.90;;;;;;4963484;28;19917;-74
2022/07/30 00:10:51;;;;;;;;;;;13.70;99.90;;;;;;4949013;28;19913;-74
2022/07/30 00:13:17;;;;;;;;;;;13.60;99.90;;;;;;4960079;28;19921;-74
2022/07/30 00:15:43;;;;;;;;;;;13.50;99.90;;;;;;4961522;28;20365;-74
2022/07/30 00:18:08;;;;;;;;;;;13.50;99.90;;;;;;4963564;28;20000;-74
2022/07/30 00:20:34;;;;;;;;;;;13.40;99.90;;;;;;4961486;28;19917;-74
2022/07/30 00:23:03;;;;;;;;;;;13.40;99.90;;;;;;4958869;28;19913;-74
2022/07/30 00:25:29;;;;;;;;;;;13.30;99.90;;;;;;4960484;28;20017;-74
2022/07/30 00:27:54;;;;;;;;;;;13.30;99.90;;;;;;4960166;28;20008;-74
2022/07/30 00:30:20;;;;;;;;;;;13.20;99.90;;;;;;4962627;28;20150;-74
2022/07/30 00:32:46;;;;;;;;;;;13.10;99.90;;;;;;4955348;28;19914;-74
2022/07/30 00:35:11;;;;;;;;;;;13.10;99.90;;;;;;4961163;28;19918;-75
2022/07/30 00:37:37;;;;;;;;;;;13.10;99.90;;;;;;4962681;28;20009;-73
2022/07/30 00:40:03;;;;;;;;;;;13.00;99.90;;;;;;4962345;28;19916;-74
2022/07/30 00:42:38;;;;;;;;;;;13.00;99.90;;;;;;4960327;28;19953;-74
2022/07/30 00:45:04;;;;;;;;;;;13.00;99.90;;;;;;4942429;28;19945;-74
2022/07/30 00:47:30;;;;;;;;;;;13.00;99.90;;;;;;4961825;28;20342;-73
2022/07/30 00:49:55;;;;;;;;;;;13.00;99.90;;;;;;4962713;28;19906;-73
2022/07/30 00:52:21;;;;;;;;;;;13.00;99.90;;;;;;4953310;28;19914;-74
2022/07/30 00:54:46;;;;;;;;;;;13.10;99.90;;;;;;4958983;28;19994;-76
2022/07/30 00:57:12;;;;;;;;;;;13.10;99.90;;;;;;4961823;28;19936;-74
2022/07/30 00:59:38;;;;;;;;;;;13.10;99.90;;;;;;4959995;28;19917;-74
2022/07/30 01:02:03;;;;;;;;;;;13.20;99.90;;;;;;4945997;28;20377;-74
2022/07/30 01:04:29;;;;;;;;;;;13.20;99.90;;;;;;4960539;28;20334;-74
2022/07/30 01:06:55;;;;;;;;;;;13.20;99.90;;;;;;4961600;28;20235;-73
2022/07/30 01:09:20;;;;;;;;;;;13.30;99.90;;;;;;4960544;28;19914;-74
2022/07/30 01:11:46;;;;;;;;;;;13.20;99.90;;;;;;4959339;28;19914;-74
2022/07/30 01:14:11;;;;;;;;;;;13.20;99.90;;;;;;4960886;28;19914;-74
2022/07/30 01:16:40;;;;;;;;;;;13.30;99.90;;;;;;4959249;28;19929;-74
2022/07/30 01:22:02;;;;;;;;;;;13.20;99.90;;;;;;4958680;28;19941;-74
2022/07/30 01:24:32;;;;;;;;;;;13.10;99.90;;;;;;4960819;28;19921;-74
2022/07/30 01:26:58;;;;;;;;;;;13.10;99.90;;;;;;4961516;28;20420;-74
2022/07/30 01:29:26;;;;;;;;;;;13.00;99.90;;;;;;4961449;28;19924;-74
2022/07/30 01:31:54;;;;;;;;;;;13.00;99.90;;;;;;4954575;28;19914;-74
2022/07/30 01:34:21;;;;;;;;;;;13.00;99.90;;;;;;4958950;28;19983;-74
2022/07/30 01:36:46;;;;;;;;;;;13.00;99.90;;;;;;4961992;28;19910;-74
2022/07/30 01:39:13;;;;;;;;;;;13.00;99.90;;;;;;4961334;28;19914;-73
2022/07/30 01:41:39;;;;;;;;;;;12.90;99.90;;;;;;4959381;28;20016;-74
2022/07/30 01:44:06;;;;;;;;;;;12.90;99.90;;;;;;4972273;28;20413;-74
2022/07/30 01:46:32;;;;;;;;;;;12.90;99.90;;;;;;4960493;28;19921;-74
2022/07/30 01:48:58;;;;;;;;;;;12.90;99.90;;;;;;4961537;28;19949;-74
2022/07/30 01:51:23;;;;;;;;;;;12.90;99.90;;;;;;4950937;28;20382;-74
2022/07/30 01:53:50;;;;;;;;;;;12.90;99.90;;;;;;4961086;28;19909;-74
2022/07/30 01:56:18;;;;;;;;;;;12.80;99.90;;;;;;4959026;28;20353;-74
2022/07/30 01:58:45;;;;;;;;;;;12.80;99.90;;;;;;4960613;28;19918;-74
2022/07/30 02:01:11;;;;;;;;;;;12.70;99.90;;;;;;4958246;28;19961;-74
2022/07/30 02:03:36;;;;;;;;;;;12.60;99.90;;;;;;4959824;28;19994;-73
2022/07/30 02:06:06;;;;;;;;;;;12.60;99.90;;;;;;4959526;28;20281;-74
2022/07/30 02:08:32;;;;;;;;;;;12.50;99.90;;;;;;4955785;28;19910;-73
2022/07/30 02:11:03;;;;;;;;;;;12.50;99.90;;;;;;4957133;28;20352;-74
2022/07/30 02:13:29;;;;;;;;;;;12.50;99.90;;;;;;4958447;28;19914;-74
2022/07/30 02:16:07;;;;;;;;;;;12.40;99.90;;;;;;4964040;28;19977;-74
2022/07/30 02:18:51;;;;;;;;;;;12.40;99.90;;;;;;4961870;28;20001;-74
2022/07/30 02:21:18;;;;;;;;;;;12.40;99.90;;;;;;4959531;28;19914;-74
2022/07/30 02:23:45;;;;;;;;;;;12.40;99.90;;;;;;4962430;28;19961;-73
2022/07/30 02:26:17;;;;;;;;;;;12.30;99.90;;;;;;4957970;28;19936;-74
2022/07/30 02:28:44;;;;;;;;;;;12.30;99.90;;;;;;4964271;28;19929;-74
2022/07/30 02:31:10;;;;;;;;;;;12.30;99.90;;;;;;4963881;28;19918;-73
2022/07/30 02:33:37;;;;;;;;;;;12.30;99.90;;;;;;4963504;28;19964;-74
2022/07/30 02:36:04;;;;;;;;;;;12.30;99.90;;;;;;4962060;28;19934;-74
2022/07/30 02:38:29;;;;;;;;;;;12.20;99.90;;;;;;4963123;28;20045;-74
2022/07/30 02:40:56;;;;;;;;;;;12.20;99.90;;;;;;4961813;28;20447;-74
2022/07/30 02:43:24;;;;;;;;;;;12.10;99.90;;;;;;4947880;28;19921;-73
2022/07/30 02:45:50;;;;;;;;;;;12.00;99.90;;;;;;4959269;28;19922;-73
2022/07/30 02:48:16;;;;;;;;;;;12.00;99.90;;;;;;4964376;28;19925;-74
2022/07/30 02:50:43;;;;;;;;;;;12.00;99.90;;;;;;4961636;28;19921;-73
2022/07/30 02:53:10;;;;;;;;;;;12.00;99.90;;;;;;4964176;28;19914;-74
2022/07/30 02:55:37;;;;;;;;;;;12.00;99.90;;;;;;4963543;28;19921;-74
2022/07/30 02:58:04;;;;;;;;;;;12.00;99.90;;;;;;4962903;28;19933;-73
2022/07/30 03:00:30;;;;;;;;;;;12.00;99.90;;;;;;4951649;28;20327;-74
2022/07/30 03:02:56;;;;;;;;;;;12.00;99.90;;;;;;4951746;28;20455;-73
2022/07/30 03:05:22;;;;;;;;;;;12.00;99.90;;;;;;4961342;28;19981;-73
2022/07/30 03:07:48;;;;;;;;;;;12.00;99.90;;;;;;4964228;28;19910;-74
2022/07/30 03:10:14;;;;;;;;;;;11.90;99.90;;;;;;4962128;28;19925;-74
2022/07/30 03:12:43;;;;;;;;;;;11.80;99.90;;;;;;4964703;28;19916;-73
2022/07/30 03:15:09;;;;;;;;;;;11.90;99.90;;;;;;4961573;28;19948;-74
2022/07/30 03:17:37;;;;;;;;;;;11.90;99.90;;;;;;4952557;28;20338;-74
2022/07/30 03:20:06;;;;;;;;;;;11.80;99.90;;;;;;4964523;28;20272;-74
2022/07/30 03:22:33;;;;;;;;;;;11.80;99.90;;;;;;4964048;28;19914;-74
2022/07/30 03:25:00;;;;;;;;;;;11.80;99.90;;;;;;4961305;28;20416;-74
2022/07/30 03:27:25;;;;;;;;;;;11.70;99.90;;;;;;4960860;28;19918;-74
2022/07/30 03:29:53;;;;;;;;;;;11.80;99.90;;;;;;4947492;28;20404;-73
2022/07/30 03:32:19;;;;;;;;;;;11.80;99.90;;;;;;4950708;28;19985;-73
2022/07/30 03:34:44;;;;;;;;;;;11.80;99.90;;;;;;4954686;28;20020;-73
2022/07/30 03:37:11;;;;;;;;;;;11.80;99.90;;;;;;4962238;28;20276;-74
2022/07/30 03:39:37;;;;;;;;;;;11.70;99.90;;;;;;4964284;28;19914;-73
2022/07/30 03:42:04;;;;;;;;;;;11.70;99.90;;;;;;4956915;28;20009;-73
2022/07/30 03:44:31;;;;;;;;;;;11.60;99.90;;;;;;4960744;28;19921;-74
2022/07/30 03:46:58;;;;;;;;;;;11.60;99.90;;;;;;4955308;28;20034;-74
2022/07/30 03:49:24;;;;;;;;;;;11.60;99.90;;;;;;4959826;28;19914;-74
2022/07/30 03:51:51;;;;;;;;;;;11.60;99.90;;;;;;4953324;28;19918;-74
2022/07/30 03:54:16;;;;;;;;;;;11.60;99.90;;;;;;4959831;28;19961;-74
2022/07/30 03:56:42;;;;;;;;;;;11.60;99.90;;;;;;4963618;28;19957;-74
2022/07/30 03:59:08;;;;;;;;;;;11.60;99.90;;;;;;4962509;28;20373;-74
2022/07/30 04:01:33;;;;;;;;;;;11.60;99.90;;;;;;4962252;28;19914;-74
2022/07/30 04:04:08;;;;;;;;;;;11.60;99.90;;;;;;4960666;28;20370;-73
2022/07/30 04:06:38;;;;;;;;;;;11.60;99.90;;;;;;4962930;28;19914;-73
2022/07/30 04:09:07;;;;;;;;;;;11.60;99.90;;;;;;4962791;28;19921;-74
2022/07/30 04:11:32;;;;;;;;;;;11.50;99.90;;;;;;4962496;28;19913;-74
2022/07/30 04:13:58;;;;;;;;;;;11.50;99.90;;;;;;4959830;28;19913;-72
2022/07/30 04:16:33;;;;;;;;;;;11.40;99.90;;;;;;4962046;28;19922;-74
2022/07/30 04:19:00;;;;;;;;;;;11.40;99.90;;;;;;4963315;28;19983;-74
2022/07/30 04:21:26;;;;;;;;;;;11.30;99.90;;;;;;4960484;28;19921;-74
2022/07/30 04:23:52;;;;;;;;;;;11.30;99.90;;;;;;4959137;28;20121;-74
2022/07/30 04:26:18;;;;;;;;;;;11.30;99.90;;;;;;4962092;28;20417;-74
2022/07/30 04:28:44;;;;;;;;;;;11.30;99.90;;;;;;4963184;28;19953;-73
2022/07/30 04:31:10;;;;;;;;;;;11.30;99.90;;;;;;4963105;28;19914;-74
2022/07/30 04:33:35;;;;;;;;;;;11.30;99.90;;;;;;4957691;28;19920;-73
2022/07/30 04:36:05;;;;;;;;;;;11.30;99.90;;;;;;4955559;28;19960;-74
2022/07/30 04:38:30;;;;;;;;;;;11.20;99.90;;;;;;4962509;28;20329;-73
2022/07/30 04:40:56;;;;;;;;;;;11.10;99.90;;;;;;4962195;28;19992;-73
2022/07/30 04:43:21;;;;;;;;;;;11.20;99.90;;;;;;4961067;28;19969;-73
2022/07/30 04:45:47;;;;;;;;;;;11.20;99.90;;;;;;4961765;28;20200;-73
2022/07/30 04:48:12;;;;;;;;;;;11.20;99.90;;;;;;4962553;28;19920;-73
2022/07/30 04:50:40;;;;;;;;;;;11.30;99.90;;;;;;4958380;28;19914;-74
2022/07/30 04:53:06;;;;;;;;;;;11.40;99.90;;;;;;4959608;28;20456;-72
2022/07/30 04:55:32;;;;;;;;;;;11.50;99.90;;;;;;4961044;28;19920;-74
2022/07/30 04:57:58;;;;;;;;;;;11.50;99.90;;;;;;4960521;28;19917;-73
2022/07/30 05:00:23;;;;;;;;;;;11.60;99.90;;;;;;4956204;28;20318;-73
2022/07/30 05:02:50;;;;;;;;;;;11.70;99.90;;;;;;4961175;28;20611;-73
2022/07/30 05:05:17;;;;;;;;;;;11.70;99.90;;;;;;4960821;28;20324;-73
2022/07/30 05:07:44;;;;;;;;;;;11.80;99.90;;;;;;4961923;28;19910;-73
2022/07/30 05:10:12;;;;;;;;;;;11.90;99.90;;;;;;4961227;28;20333;-73
2022/07/30 05:12:38;;;;;;;;;;;12.10;99.90;;;;;;4960542;28;20017;-73
2022/07/30 05:15:04;;;;;;;;;;;12.20;99.90;;;;;;4958224;28;20017;-73
2022/07/30 05:17:30;;;;;;;;;;;12.30;99.90;;;;;;4942843;29;19953;-74
2022/07/30 05:19:55;;;;;;;;;;;12.40;99.90;;;;;;4958464;28;19949;-74
2022/07/30 05:22:21;;;;;;;;;;;12.50;99.90;;;;;;4958970;28;19921;-73
2022/07/30 05:24:46;;;;;;;;;;;12.60;99.90;;;;;;4959386;28;19965;-73
2022/07/30 05:27:12;;;;;;;;;;;12.70;99.90;;;;;;4954176;28;19914;-73
2022/07/30 05:29:37;;;;;;;;;;;12.70;99.90;;;;;;4945220;28;20032;-74
2022/07/30 05:32:03;;;;;;;;;;;12.70;99.90;;;;;;4957317;28;19914;-73
2022/07/30 05:34:29;;;;;;;;;;;12.70;99.90;;;;;;4955104;28;19920;-74
2022/07/30 05:36:54;;;;;;;;;;;12.80;99.90;;;;;;4959762;28;19917;-73
2022/07/30 05:39:20;;;;;;;;;;;12.80;99.90;;;;;;4961298;28;19941;-73
2022/07/30 05:41:45;;;;;;;;;;;12.80;99.90;;;;;;4951073;28;19921;-73
2022/07/30 05:44:11;;;;;;;;;;;12.80;99.90;;;;;;4958075;28;20028;-73
2022/07/30 05:46:36;;;;;;;;;;;12.90;99.90;;;;;;4960904;28;19976;-73
2022/07/30 05:49:02;;;;;;;;;;;12.90;99.90;;;;;;4957367;28;19942;-73
2022/07/30 05:51:28;;;;;;;;;;;13.10;99.90;;;;;;4957775;28;19918;-73
2022/07/30 05:53:53;;;;;;;;;;;13.20;99.90;;;;;;4954533;28;20289;-74
2022/07/30 05:56:19;;;;;;;;;;;13.40;99.90;;;;;;4959845;28;19922;-73
2022/07/30 05:58:44;;;;;;;;;;;13.60;99.90;;;;;;4959304;28;19925;-73
2022/07/30 06:01:10;;;;;;;;;;;13.80;99.90;;;;;;4956358;28;19914;-73
2022/07/30 06:03:35;;;;;;;;;;;14.10;99.90;;;;;;4957647;28;19918;-73
2022/07/30 06:06:02;;;;;;;;;;;14.40;99.90;;;;;;4938785;28;20362;-73
2022/07/30 06:08:27;;;;;;;;;;;14.70;99.90;;;;;;4947284;28;19990;-73
2022/07/30 06:10:53;;;;;;;;;;;15.00;99.90;;;;;;4953111;28;19914;-73
2022/07/30 06:13:18;;;;;;;;;;;15.40;99.90;;;;;;4955582;28;20318;-73
2022/07/30 06:15:44;;;;;;;;;;;15.80;99.90;;;;;;4953445;28;19925;-73
2022/07/30 06:18:09;;;;;;;;;;;15.90;99.90;;;;;;4956799;28;19930;-74
2022/07/30 06:20:35;;;;;;;;;;;16.10;99.90;;;;;;4612563;28;10000233;-73
2022/07/30 06:23:00;;;;;;;;;;;16.20;99.90;;;;;;4949518;28;21283;-73
2022/07/30 06:25:26;;;;;;;;;;;16.20;99.90;;;;;;4951128;28;20490;-73
2022/07/30 06:27:52;;;;;;;;;;;16.40;99.90;;;;;;4929180;28;19915;-74
2022/07/30 06:30:17;;;;;;;;;;;16.50;99.90;;;;;;4948177;28;19940;-73
2022/07/30 06:32:44;;;;;;;;;;;16.70;99.90;;;;;;4940793;28;20439;-73
2022/07/30 06:35:10;;;;;;;;;;;16.80;99.90;;;;;;4945335;28;20406;-73
2022/07/30 06:37:35;;;;;;;;;;;16.80;99.90;;;;;;4941946;28;19925;-73
2022/07/30 06:40:01;;;;;;;;;;;16.90;99.90;;;;;;4945229;28;19917;-73
2022/07/30 06:42:27;;;;;;;;;;;16.90;99.90;;;;;;4949453;28;19914;-73
2022/07/30 06:44:53;;;;;;;;;;;16.90;99.90;;;;;;4941090;28;19932;-73
2022/07/30 06:47:27;;;;;;;;;;;16.90;99.90;;;;;;4951321;28;19998;-72
2022/07/30 06:49:53;;;;;;;;;;;17.00;99.90;;;;;;4954994;28;19914;-73
2022/07/30 06:52:19;;;;;;;;;;;17.00;99.90;;;;;;4947239;28;19914;-73
2022/07/30 06:54:46;;;;;;;;;;;17.20;99.90;;;;;;4954505;28;19926;-73
2022/07/30 06:57:12;;;;;;;;;;;17.40;99.90;;;;;;4948400;28;19914;-73
2022/07/30 06:59:37;;;;;;;;;;;17.70;99.90;;;;;;4945112;28;19944;-73
2022/07/30 07:02:03;;;;;;;;;;;17.90;99.90;;;;;;4951540;28;19910;-74
2022/07/30 07:04:28;;;;;;;;;;;17.80;99.90;;;;;;4944173;28;20350;-74
2022/07/30 07:06:54;;;;;;;;;;;17.90;99.90;;;;;;4936970;28;19914;-74
2022/07/30 07:09:19;;;;;;;;;;;17.90;99.90;;;;;;4958868;28;20515;-74
2022/07/30 07:11:45;;;;;;;;;;;17.90;99.90;;;;;;4955351;28;19918;-74
2022/07/30 07:14:10;;;;;;;;;;;17.90;99.90;;;;;;4956688;28;19917;-77
2022/07/30 07:16:36;;;;;;;;;;;18.10;99.90;;;;;;4957126;28;19922;-75
2022/07/30 07:19:01;;;;;;;;;;;18.30;99.90;;;;;;4956725;28;20324;-74
2022/07/30 07:21:27;;;;;;;;;;;18.30;99.90;;;;;;4957182;28;19914;-74
2022/07/30 07:23:52;;;;;;;;;;;18.40;99.90;;;;;;4953181;28;19937;-74
2022/07/30 07:26:18;;;;;;;;;;;18.60;99.90;;;;;;4954905;28;20000;-75
2022/07/30 07:28:43;;;;;;;;;;;18.70;99.90;;;;;;4944317;28;20725;-74
2022/07/30 07:31:09;;;;;;;;;;;19.00;99.90;;;;;;4962208;28;19918;-73
2022/07/30 07:33:35;;;;;;;;;;;19.20;99.90;;;;;;4955064;28;19918;-74
2022/07/30 07:36:01;;;;;;;;;;;19.50;99.90;;;;;;4958635;28;20001;-74
2022/07/30 07:38:26;;;;;;;;;;;20.00;99.90;;;;;;4954778;28;19914;-73
2022/07/30 07:40:52;;;;;;;;;;;20.40;99.90;;;;;;4955733;28;19943;-74
2022/07/30 07:43:17;;;;;;;;;;;21.00;99.90;;;;;;4953561;28;19929;-74
2022/07/30 07:45:44;;;;;;;;;;;21.50;99.90;;;;;;4953618;28;20417;-74
2022/07/30 07:48:10;;;;;;;;;;;21.80;99.90;;;;;;4950067;28;19914;-74
2022/07/30 07:50:36;;;;;;;;;;;22.30;99.90;;;;;;4950458;28;19918;-74
2022/07/30 07:53:01;;;;;;;;;;;22.70;99.90;;;;;;4955699;28;19955;-74
2022/07/30 07:55:27;;;;;;;;;;;23.40;99.90;;;;;;4957773;28;19914;-74
2022/07/30 07:57:53;;;;;;;;;;;23.90;99.90;;;;;;4960595;28;19914;-74
2022/07/30 08:00:19;;;;;;;;;;;24.60;99.90;;;;;;4959019;28;19921;-73
2022/07/30 08:02:45;;;;;;;;;;;25.30;99.90;;;;;;4957707;28;19925;-73
2022/07/30 08:05:13;;;;;;;;;;;25.90;99.90;;;;;;4955044;28;20239;-73
2022/07/30 08:07:39;;;;;;;;;;;26.10;99.90;;;;;;4956007;28;20452;-74
2022/07/30 08:10:05;;;;;;;;;;;27.00;99.90;;;;;;4959885;28;20346;-74
2022/07/30 08:12:31;;;;;;;;;;;27.50;99.40;;;;;;4952930;28;19949;-73
2022/07/30 08:14:56;;;;;;;;;;;28.00;97.50;;;;;;4954538;28;20017;-74
2022/07/30 08:17:22;;;;;;;;;;;28.30;97.10;;;;;;4937730;29;19958;-73
2022/07/30 08:19:48;;;;;;;;;;;28.60;94.30;;;;;;4930152;29;19914;-74
2022/07/30 08:22:13;;;;;;;;;;;28.90;92.80;;;;;;4934328;29;20417;-74
2022/07/30 08:24:39;;;;;;;;;;;28.70;92.50;;;;;;4929073;29;19969;-73
2022/07/30 08:27:06;;;;;;;;;;;29.80;91.80;;;;;;4941672;29;19927;-73
2022/07/30 08:29:32;;;;;;;;;;;30.30;87.80;;;;;;4939486;29;19921;-74
2022/07/30 08:31:57;;;;;;;;;;;30.50;82.10;;;;;;4934521;29;20005;-76
2022/07/30 08:34:23;;;;;;;;;;;30.50;81.80;;;;;;4928990;29;19921;-76
2022/07/30 08:36:48;;;;;;;;;;;30.00;81.40;;;;;;4916906;29;19914;-74
2022/07/30 08:39:14;;;;;;;;;;;29.40;84.00;;;;;;4934774;28;19915;-75
2022/07/30 08:41:40;;;;;;;;;;;29.30;83.30;;;;;;4942197;28;20395;-75
2022/07/30 08:44:08;;;;;;;;;;;28.90;80.30;;;;;;4928042;28;19928;-76
2022/07/30 08:46:35;;;;;;;;;;;28.90;85.50;;;;;;4937698;28;20357;-76
2022/07/30 08:49:01;;;;;;;;;;;28.80;89.10;;;;;;4936268;28;19959;-76
2022/07/30 08:51:27;;;;;;;;;;;28.20;86.60;;;;;;4947068;28;20563;-76
2022/07/30 08:53:52;;;;;;;;;;;27.30;89.20;;;;;;4942762;28;20378;-75
2022/07/30 08:56:18;;;;;;;;;;;26.90;95.40;;;;;;4941537;28;20057;-74
2022/07/30 08:58:44;;;;;;;;;;;26.60;95.20;;;;;;4937233;28;20313;-75
2022/07/30 09:01:09;;;;;;;;;;;26.30;93.90;;;;;;4938179;28;20013;-75
2022/07/30 09:03:36;;;;;;;;;;;25.90;98.40;;;;;;4938315;29;20366;-75
2022/07/30 09:06:02;;;;;;;;;;;25.50;98.90;;;;;;4593788;28;9999618;-75
2022/07/30 09:08:28;;;;;;;;;;;25.20;99.90;;;;;;4937285;28;20361;-74
2022/07/30 09:10:54;;;;;;;;;;;25.00;99.90;;;;;;4936524;29;19921;-75
2022/07/30 09:13:22;;;;;;;;;;;24.90;99.90;;;;;;4930416;29;19937;-74
2022/07/30 09:15:48;;;;;;;;;;;24.80;99.90;;;;;;4926580;28;19923;-76
2022/07/30 09:18:24;;;;;;;;;;;24.50;99.90;;;;;;4927757;28;19941;-75
2022/07/30 09:20:50;;;;;;;;;;;24.50;99.90;;;;;;4930915;28;19914;-74
2022/07/30 09:23:16;;;;;;;;;;;24.50;99.90;;;;;;4917990;28;20388;-75
2022/07/30 09:25:45;;;;;;;;;;;24.50;99.90;;;;;;4934979;28;19922;-75
2022/07/30 09:28:11;;;;;;;;;;;24.60;99.90;;;;;;4944145;28;20041;-76
2022/07/30 09:30:48;;;;;;;;;;;24.80;99.90;;;;;;4939547;28;20076;-75
2022/07/30 09:33:16;;;;;;;;;;;24.80;99.90;;;;;;4938308;28;19925;-74
2022/07/30 09:35:42;;;;;;;;;;;25.10;99.90;;;;;;4931901;28;19915;-73
2022/07/30 09:38:07;;;;;;;;;;;25.60;99.90;;;;;;4918225;28;19933;-75
2022/07/30 09:40:33;;;;;;;;;;;26.10;99.90;;;;;;4936870;28;20366;-74
2022/07/30 09:43:03;;;;;;;;;;;27.00;99.90;;;;;;4939987;28;20347;-75
2022/07/30 09:45:28;;;;;;;;;;;27.80;99.20;;;;;;4936817;28;19923;-75
2022/07/30 09:47:54;;;;;;;;;;;28.30;92.10;;;;;;4941953;28;19918;-75
2022/07/30 09:50:20;;;;;;;;;;;28.80;91.90;;;;;;4942146;28;19914;-75
2022/07/30 09:52:47;;;;;;;;;;;28.90;89.10;;;;;;4938271;28;19962;-74
2022/07/30 09:55:13;;;;;;;;;;;29.00;87.40;;;;;;4937510;28;19914;-75
2022/07/30 09:57:53;;;;;;;;;;;29.20;82.80;;;;;;4938782;29;19914;-75
2022/07/30 10:00:21;;;;;;;;;;;29.20;82.90;;;;;;4936884;28;19914;-76
2022/07/30 10:02:49;;;;;;;;;;;30.00;80.40;;;;;;4922722;28;19957;-75
2022/07/30 10:05:16;;;;;;;;;;;30.30;76.20;;;;;;4931447;28;19922;-75
2022/07/30 10:07:49;;;;;;;;;;;30.80;75.90;;;;;;4936970;28;19925;-75
2022/07/30 10:10:16;;;;;;;;;;;32.10;71.80;;;;;;4931387;28;19914;-76
2022/07/30 10:12:41;;;;;;;;;;;33.50;64.50;;;;;;4939665;28;20283;-75
2022/07/30 10:15:07;;;;;;;;;;;33.50;56.70;;;;;;4938968;28;20377;-75
2022/07/30 10:17:33;;;;;;;;;;;32.70;60.90;;;;;;4934843;28;19924;-76
2022/07/30 10:19:59;;;;;;;;;;;31.70;62.80;;;;;;4939432;28;19993;-77
2022/07/30 10:22:25;;;;;;;;;;;31.00;66.70;;;;;;4941974;28;19961;-77
2022/07/30 10:24:51;;;;;;;;;;;30.40;72.90;;;;;;4917582;29;19968;-77
2022/07/30 10:27:17;;;;;;;;;;;29.90;73.20;;;;;;4938195;28;19954;-76
2022/07/30 10:29:43;;;;;;;;;;;29.50;76.20;;;;;;4938398;28;20220;-75
2022/07/30 10:32:09;;;;;;;;;;;29.40;75.90;;;;;;4938110;28;20286;-77
2022/07/30 10:34:36;;;;;;;;;;;30.60;79.00;;;;;;4937978;28;19910;-77
2022/07/30 10:37:03;;;;;;;;;;;31.20;69.60;;;;;;4942006;29;19914;-77
2022/07/30 10:39:31;;;;;;;;;;;32.10;71.30;;;;;;4941885;29;19958;-77
2022/07/30 10:42:02;;;;;;;;;;;32.00;68.40;;;;;;4942726;29;19924;-77
2022/07/30 10:44:28;;;;;;;;;;;32.70;66.90;;;;;;4933482;29;19926;-78
2022/07/30 10:46:56;;;;;;;;;;;33.10;73.20;;;;;;4943451;29;20334;-77
2022/07/30 10:49:22;;;;;;;;;;;33.10;63.70;;;;;;4943187;29;20001;-77
2022/07/30 10:51:48;;;;;;;;;;;32.70;59.90;;;;;;4942505;28;20001;-77
2022/07/30 10:54:32;;;;;;;;;;;32.00;61.60;;;;;;4938702;29;19918;-77
2022/07/30 10:57:04;;;;;;;;;;;31.40;63.70;;;;;;4932886;29;19918;-76
2022/07/30 10:59:50;;;;;;;;;;;31.10;70.40;;;;;;4941380;29;20366;-77
2022/07/30 11:02:16;;;;;;;;;;;30.80;74.30;;;;;;4937847;29;19915;-77
2022/07/30 11:04:41;;;;;;;;;;;31.10;67.90;;;;;;4939517;29;19922;-77
2022/07/30 11:07:28;;;;;;;;;;;30.80;65.10;;;;;;4935303;29;20425;-78
2022/07/30 11:10:00;;;;;;;;;;;31.30;71.10;;;;;;4927457;29;19998;-77
2022/07/30 11:12:41;;;;;;;;;;;31.20;69.60;;;;;;4938777;29;19922;-76
2022/07/30 11:15:07;;;;;;;;;;;31.10;68.00;;;;;;4929089;28;20306;-77
2022/07/30 11:17:51;;;;;;;;;;;31.00;71.10;;;;;;4940579;29;20490;-77
2022/07/30 11:20:19;;;;;;;;;;;30.90;68.60;;;;;;4935415;28;19914;-77
2022/07/30 11:22:48;;;;;;;;;;;30.40;68.90;;;;;;4939009;28;20374;-77
2022/07/30 11:25:26;;;;;;;;;;;30.70;74.30;;;;;;4933960;29;20350;-77
2022/07/30 11:27:51;;;;;;;;;;;31.10;73.50;;;;;;4936930;28;19918;-78
2022/07/30 11:30:17;;;;;;;;;;;32.40;79.10;;;;;;4927795;28;20194;-75
2022/07/30 11:32:46;;;;;;;;;;;32.80;64.40;;;;;;4937403;29;19914;-77
2022/07/30 11:35:13;;;;;;;;;;;32.30;66.60;;;;;;4942166;29;20305;-77
2022/07/30 11:37:55;;;;;;;;;;;31.40;63.50;;;;;;4924309;28;19915;-76
2022/07/30 11:40:22;;;;;;;;;;;30.60;68.80;;;;;;4930998;29;19960;-77
2022/07/30 11:42:47;;;;;;;;;;;30.20;72.10;;;;;;4934697;29;20468;-77
2022/07/30 11:45:16;;;;;;;;;;;29.90;70.10;;;;;;4934223;29;20043;-76
2022/07/30 11:47:42;;;;;;;;;;;29.60;72.00;;;;;;4933710;29;19914;-76
2022/07/30 11:50:16;;;;;;;;;;;29.50;80.10;;;;;;4933588;29;19918;-78
2022/07/30 11:52:41;;;;;;;;;;;29.20;79.10;;;;;;4936695;29;20398;-76
2022/07/30 11:55:07;;;;;;;;;;;28.80;81.10;;;;;;4595062;29;9999879;-76
2022/07/30 11:57:39;;;;;;;;;;;29.00;78.80;;;;;;4931211;29;20002;-76
2022/07/30 12:00:05;;;;;;;;;;;29.00;75.60;;;;;;4931580;29;19914;-76
2022/07/30 12:02:31;;;;;;;;;;;29.10;70.20;;;;;;4931520;29;19961;-76
2022/07/30 12:04:56;;;;;;;;;;;29.00;70.70;;;;;;4957323;23;20040;-77
2022/07/30 12:07:23;;;;;;;;;;;29.00;74.60;;;;;;4971624;28;20028;-78
2022/07/30 12:09:48;;;;;;;;;;;28.70;72.60;;;;;;4976260;28;20340;-76
2022/07/30 12:12:23;;;;;;;;;;;28.50;72.00;;;;;;4970777;28;20081;-77
2022/07/30 12:14:49;;;;;;;;;;;28.70;74.00;;;;;;4964528;28;20409;-77
2022/07/30 12:17:15;;;;;;;;;;;28.70;78.00;;;;;;4966715;28;19949;-77
2022/07/30 12:19:47;;;;;;;;;;;28.60;78.00;;;;;;4964345;28;20378;-76
2022/07/30 12:22:12;;;;;;;;;;;28.80;72.30;;;;;;4957197;28;19956;-78
2022/07/30 12:24:38;;;;;;;;;;;28.60;75.70;;;;;;4962162;28;20039;-76
2022/07/30 12:27:04;;;;;;;;;;;28.40;75.00;;;;;;4971427;28;19913;-77
2022/07/30 12:29:31;;;;;;;;;;;28.10;83.10;;;;;;4955834;28;19914;-77
2022/07/30 12:31:56;;;;;;;;;;;28.20;82.70;;;;;;4970207;28;19921;-77
2022/07/30 12:34:23;;;;;;;;;;;28.30;80.50;;;;;;4976414;28;20305;-76
2022/07/30 12:36:49;;;;;;;;;;;28.30;85.70;;;;;;4966974;28;20285;-77
2022/07/30 12:39:21;;;;;;;;;;;28.30;87.30;;;;;;4958487;28;20004;-78
2022/07/30 12:41:48;;;;;;;;;;;28.60;88.00;;;;;;4966984;28;19913;-77
2022/07/30 12:44:52;;;;;;;;;;;28.30;88.60;;;;;;4973784;28;19918;-76
2022/07/30 12:47:22;;;;;;;;;;;28.50;90.50;;;;;;4896857;29;19966;-76
2022/07/30 12:49:48;;;;;;;;;;;28.40;82.90;;;;;;4913007;29;20389;-76
2022/07/30 12:52:27;;;;;;;;;;;28.20;87.00;;;;;;4920871;28;19918;-77
2022/07/30 12:55:01;;;;;;;;;;;28.10;89.60;;;;;;4946633;28;20492;-76
2022/07/30 12:57:27;;;;;;;;;;;28.20;85.20;;;;;;4977319;28;19976;-77
2022/07/30 13:00:19;;;;;;;;;;;28.20;86.20;;;;;;4976575;28;19913;-77
2022/07/30 13:02:53;;;;;;;;;;;28.30;86.60;;;;;;4972715;28;19918;-76
2022/07/30 13:05:18;;;;;;;;;;;28.10;85.00;;;;;;4981868;28;19953;-76
2022/07/30 13:07:58;;;;;;;;;;;28.20;88.80;;;;;;4958395;28;19918;-76
2022/07/30 13:10:24;;;;;;;;;;;28.00;81.30;;;;;;4965402;28;19921;-76
2022/07/30 13:12:49;;;;;;;;;;;27.60;87.70;;;;;;4954437;28;19913;-76
2022/07/30 13:15:21;;;;;;;;;;;27.30;86.00;;;;;;4960122;28;19926;-77
2022/07/30 13:17:47;;;;;;;;;;;27.30;91.50;;;;;;4956386;28;19953;-77
2022/07/30 13:20:13;;;;;;;;;;;27.30;90.10;;;;;;4951620;28;19914;-77
2022/07/30 13:22:38;;;;;;;;;;;27.10;87.80;;;;;;4973225;28;19914;-75
2022/07/30 13:25:04;;;;;;;;;;;27.20;91.20;;;;;;4961704;28;19944;-78
2022/07/30 13:27:29;;;;;;;;;;;27.30;91.30;;;;;;4968034;28;20568;-74
2022/07/30 13:29:55;;;;;;;;;;;27.10;85.20;;;;;;4963049;28;19967;-74
2022/07/30 13:32:20;;;;;;;;;;;27.10;87.70;;;;;;4958669;28;19929;-74
2022/07/30 13:34:46;;;;;;;;;;;27.40;92.00;;;;;;4967391;28;19989;-75
2022/07/30 13:37:11;;;;;;;;;;;27.70;88.70;;;;;;4967211;28;19913;-75
2022/07/30 13:39:37;;;;;;;;;;;27.90;86.90;;;;;;4970732;28;19914;-76
2022/07/30 13:42:03;;;;;;;;;;;28.40;87.50;;;;;;4959290;28;19914;-77
2022/07/30 13:44:28;;;;;;;;;;;29.00;90.00;;;;;;4971477;28;20220;-75
2022/07/30 13:46:54;;;;;;;;;;;29.70;81.40;;;;;;4951014;28;20651;-74
2022/07/30 13:49:19;;;;;;;;;;;30.20;79.30;;;;;;4945319;28;19928;-76
2022/07/30 13:51:45;;;;;;;;;;;30.10;77.10;;;;;;4976538;28;20057;-77
2022/07/30 13:54:10;;;;;;;;;;;29.90;77.10;;;;;;4970146;28;20404;-76
2022/07/30 13:56:36;;;;;;;;;;;29.40;80.30;;;;;;4974961;28;20956;-75
2022/07/30 13:59:01;;;;;;;;;;;29.10;83.10;;;;;;4974136;28;20117;-76
2022/07/30 14:01:27;;;;;;;;;;;28.50;84.20;;;;;;4972565;28;20297;-76
2022/07/30 14:03:53;;;;;;;;;;;28.00;87.20;;;;;;4953341;28;19996;-75
2022/07/30 14:06:18;;;;;;;;;;;27.80;91.50;;;;;;4961676;28;20105;-75
2022/07/30 14:08:44;;;;;;;;;;;27.30;91.40;;;;;;4931282;28;19961;-76
2022/07/30 14:11:10;;;;;;;;;;;27.20;91.60;;;;;;4968092;28;20000;-68
2022/07/30 14:13:35;;;;;;;;;;;27.10;92.70;;;;;;4974208;28;19929;-68
2022/07/30 14:16:01;;;;;;;;;;;27.00;94.30;;;;;;4966098;28;19918;-69
2022/07/30 14:18:26;;;;;;;;;;;26.90;94.30;;;;;;4975284;28;20012;-68